Time;durP1;ratioP1;P1;durP2;ratioP2;P2;SDS_P1;SDS_P2;PMS_P1;PMS_P2;Temp;Humidity;BMP_temperature;BMP_pressure;BME280_temperature;BME280_humidity;BME280_pressure;Samples;Min_cycle;Max_cycle;Signal;HPM_P1;HPM_P2
2022/04/14 00:02:23;;;;;;;3.47;2.60;;;;;;;13.02;37.18;100166.00;5050612;28;20032;-37
2022/04/14 00:04:49;;;;;;;4.38;2.50;;;;;;;13.04;37.07;100156.75;5050381;28;20029;-37
2022/04/14 00:07:14;;;;;;;3.53;2.53;;;;;;;13.21;36.83;100154.44;5050901;28;20040;-38
2022/04/14 00:09:41;;;;;;;3.25;2.30;;;;;;;13.09;36.50;100156.94;5049879;28;20064;-37
2022/04/14 00:12:07;;;;;;;4.00;2.58;;;;;;;13.11;36.95;100159.41;5050279;28;20482;-37
2022/04/14 00:14:33;;;;;;;4.13;2.40;;;;;;;12.75;37.49;100152.69;5050250;28;20078;-37
2022/04/14 00:16:59;;;;;;;3.90;2.65;;;;;;;12.79;37.03;100161.91;5050577;28;20025;-37
2022/04/14 00:19:24;;;;;;;5.40;2.70;;;;;;;12.39;38.27;100153.94;5050089;28;20032;-37
2022/04/14 00:21:50;;;;;;;3.00;2.40;;;;;;;11.98;38.48;100141.59;5050350;28;20079;-37
2022/04/14 00:24:15;;;;;;;4.15;2.90;;;;;;;12.26;38.05;100157.44;5050237;28;20462;-37
2022/04/14 00:26:44;;;;;;;4.45;2.72;;;;;;;12.33;37.96;100157.44;5050338;28;20388;-37
2022/04/14 00:29:11;;;;;;;6.50;2.55;;;;;;;12.57;37.93;100145.31;5050321;28;20021;-37
2022/04/14 00:31:36;;;;;;;6.85;2.80;;;;;;;12.65;37.20;100165.66;5050152;28;20033;-37
2022/04/14 00:34:02;;;;;;;4.32;2.90;;;;;;;12.78;38.05;100159.47;5050041;28;20027;-37
2022/04/14 00:36:28;;;;;;;4.10;2.53;;;;;;;12.65;37.24;100130.94;5050204;28;20033;-37
2022/04/14 00:38:54;;;;;;;3.20;2.50;;;;;;;12.38;38.41;100173.66;5050196;28;20029;-37
2022/04/14 00:41:19;;;;;;;4.35;2.60;;;;;;;12.46;37.42;100178.78;5050377;28;20031;-37
2022/04/14 00:43:51;;;;;;;3.30;2.50;;;;;;;12.09;38.63;100175.69;5050007;28;20497;-37
2022/04/14 00:46:17;;;;;;;6.18;2.45;;;;;;;12.23;38.30;100173.84;5049935;28;20028;-37
2022/04/14 00:48:43;;;;;;;4.72;2.55;;;;;;;12.48;38.22;100168.72;5050004;28;20341;-37
2022/04/14 00:51:08;;;;;;;6.63;2.83;;;;;;;12.55;38.01;100170.59;5049532;28;20112;-37
2022/04/14 00:53:34;;;;;;;4.97;2.50;;;;;;;12.45;39.45;100158.47;5049659;28;20033;-37
2022/04/14 00:56:00;;;;;;;4.65;2.78;;;;;;;12.41;39.44;100167.06;5049569;28;20394;-37
2022/04/14 00:58:26;;;;;;;6.53;2.90;;;;;;;12.53;40.04;100162.78;5049755;28;20029;-37
2022/04/14 01:00:52;;;;;;;4.22;2.60;;;;;;;12.28;40.16;100165.22;5050059;28;20143;-37
2022/04/14 01:03:18;;;;;;;4.95;2.90;;;;;;;12.37;40.04;100171.19;5050061;28;20040;-37
2022/04/14 01:05:45;;;;;;;3.63;2.83;;;;;;;12.26;40.18;100167.28;5050305;28;20029;-37
2022/04/14 01:08:16;;;;;;;5.18;2.90;;;;;;;12.36;40.19;100166.91;5053478;28;20065;-37
2022/04/14 01:10:47;;;;;;;7.15;3.25;;;;;;;12.20;39.74;100170.75;5054124;28;20033;-37
2022/04/14 01:13:13;;;;;;;4.97;2.90;;;;;;;11.75;41.15;100176.59;5053817;28;20514;-37
2022/04/14 01:15:39;;;;;;;4.72;3.10;;;;;;;11.73;41.28;100181.31;5054009;28;20029;-37
2022/04/14 01:18:05;;;;;;;5.15;3.10;;;;;;;11.92;41.34;100177.09;5054214;28;20528;-37
2022/04/14 01:20:31;;;;;;;5.20;3.10;;;;;;;11.81;41.05;100175.78;5053718;28;20025;-37
2022/04/14 01:23:00;;;;;;;5.30;3.42;;;;;;;11.91;41.67;100181.59;5054311;28;20086;-37
2022/04/14 01:25:26;;;;;;;4.95;3.25;;;;;;;12.02;41.14;100174.03;5053429;28;20035;-37
2022/04/14 01:27:51;;;;;;;6.30;4.30;;;;;;;11.68;42.23;100184.56;5053471;28;20028;-39
2022/04/14 01:30:17;;;;;;;11.70;4.60;;;;;;;10.95;44.72;100187.69;5053739;28;20043;-36
2022/04/14 01:32:42;;;;;;;7.80;4.85;;;;;;;10.80;45.28;100194.97;5053901;28;20039;-37
2022/04/14 01:35:08;;;;;;;7.15;4.65;;;;;;;10.77;45.39;100192.69;5053280;28;20028;-36
2022/04/14 01:37:34;;;;;;;8.05;4.95;;;;;;;10.48;45.87;100186.53;5053902;28;20106;-37
2022/04/14 01:39:59;;;;;;;9.52;5.03;;;;;;;10.62;45.78;100194.59;5053594;28;20458;-37
2022/04/14 01:42:25;;;;;;;5.82;4.72;;;;;;;10.70;45.43;100197.13;5053723;28;20025;-37
2022/04/14 01:44:50;;;;;;;7.80;5.15;;;;;;;10.69;45.78;100198.97;5052763;28;20507;-37
2022/04/14 01:47:16;;;;;;;8.70;5.57;;;;;;;10.69;45.26;100201.63;5053574;28;20053;-36
2022/04/14 01:49:41;;;;;;;8.40;5.03;;;;;;;10.64;46.33;100197.91;5053265;28;20028;-37
2022/04/14 01:52:07;;;;;;;6.80;4.88;;;;;;;10.72;46.00;100190.59;5053704;28;20028;-37
2022/04/14 01:54:32;;;;;;;9.05;5.47;;;;;;;10.50;46.44;100211.09;5053437;28;20453;-36
2022/04/14 01:56:58;;;;;;;8.18;5.10;;;;;;;10.85;45.33;100208.53;5052772;28;20081;-37
2022/04/14 01:59:24;;;;;;;9.73;5.53;;;;;;;10.76;45.67;100207.03;5053602;28;20044;-37
2022/04/14 02:01:49;;;;;;;10.75;5.45;;;;;;;10.73;46.39;100215.38;5053369;28;20496;-37
2022/04/14 02:04:15;;;;;;;8.70;5.47;;;;;;;10.81;46.27;100209.91;5053169;28;20040;-37
2022/04/14 02:06:41;;;;;;;8.15;5.07;;;;;;;10.84;46.22;100212.19;5053517;28;20381;-38
2022/04/14 02:09:06;;;;;;;8.88;5.00;;;;;;;10.84;46.76;100209.53;5053277;28;20064;-38
2022/04/14 02:11:32;;;;;;;8.65;5.15;;;;;;;10.77;46.60;100213.97;5053101;28;20029;-38
2022/04/14 02:13:57;;;;;;;9.05;5.68;;;;;;;10.76;46.93;100207.03;5053171;28;20033;-38
2022/04/14 02:16:23;;;;;;;9.02;5.60;;;;;;;10.68;46.86;100223.97;5052874;28;20040;-38
2022/04/14 02:18:48;;;;;;;8.02;5.32;;;;;;;10.78;46.94;100214.81;5051930;28;20436;-38
2022/04/14 02:21:13;;;;;;;9.77;5.70;;;;;;;10.83;46.47;100213.19;5052864;28;20064;-37
2022/04/14 02:23:39;;;;;;;9.45;5.82;;;;;;;10.81;47.03;100219.75;5053042;28;20021;-38
2022/04/14 02:26:04;;;;;;;13.00;6.63;;;;;;;10.71;46.81;100220.06;5052752;28;20052;-37
2022/04/14 02:28:30;;;;;;;11.13;6.10;;;;;;;10.59;47.28;100222.44;5052553;28;20123;-38
2022/04/14 02:30:55;;;;;;;13.13;6.18;;;;;;;10.74;46.71;100225.03;5053029;28;20108;-38
2022/04/14 02:33:21;;;;;;;11.23;6.57;;;;;;;10.85;46.66;100227.16;5052793;28;20115;-38
2022/04/14 02:35:46;;;;;;;17.05;6.90;;;;;;;10.60;47.45;100229.41;5052522;28;20060;-38
2022/04/14 02:38:12;;;;;;;9.45;6.25;;;;;;;10.64;47.74;100228.03;5052295;28;20057;-37
2022/04/14 02:40:38;;;;;;;10.15;6.53;;;;;;;10.31;48.41;100217.88;5052707;28;20238;-37
2022/04/14 02:43:04;;;;;;;9.55;6.20;;;;;;;10.12;49.00;100221.13;5052671;28;20021;-37
2022/04/14 02:45:29;;;;;;;10.52;6.47;;;;;;;10.13;48.91;100215.63;5052453;28;20025;-37
2022/04/14 02:47:55;;;;;;;11.30;6.90;;;;;;;10.13;48.98;100218.31;5052585;28;20100;-38
2022/04/14 02:50:21;;;;;;;12.07;6.40;;;;;;;9.79;49.51;100217.09;5052389;28;20036;-37
2022/04/14 02:52:51;;;;;;;11.50;5.57;;;;;;;9.87;48.73;100213.50;5052337;28;20025;-37
2022/04/14 02:55:17;;;;;;;10.60;5.82;;;;;;;9.99;48.03;100219.16;5052302;28;20021;-37
2022/04/14 02:57:43;;;;;;;11.07;5.50;;;;;;;10.05;47.70;100213.09;5052529;28;20029;-38
2022/04/14 03:00:09;;;;;;;11.70;6.10;;;;;;;9.77;47.90;100213.81;5051398;28;20349;-36
2022/04/14 03:02:35;;;;;;;15.05;6.90;;;;;;;9.79;47.65;100218.94;5051994;28;20025;-37
2022/04/14 03:05:02;;;;;;;10.18;6.68;;;;;;;9.50;47.93;100194.06;5052177;28;20017;-37
2022/04/14 03:07:28;;;;;;;11.93;6.40;;;;;;;9.65;48.21;100206.50;5052005;28;20085;-37
2022/04/14 03:09:53;;;;;;;9.43;6.30;;;;;;;9.50;48.63;100204.69;5051543;28;20033;-37
2022/04/14 03:12:19;;;;;;;11.70;6.20;;;;;;;9.55;49.20;100212.09;5051979;28;20477;-37
2022/04/14 03:14:46;;;;;;;10.57;6.22;;;;;;;9.62;49.05;100215.69;5051756;28;20033;-37
2022/04/14 03:17:12;;;;;;;10.60;5.85;;;;;;;9.62;48.55;100213.03;5051825;28;20028;-37
2022/04/14 03:19:37;;;;;;;16.40;6.60;;;;;;;9.72;48.56;100208.22;5051761;28;20074;-37
2022/04/14 03:22:03;;;;;;;12.43;5.90;;;;;;;9.75;48.47;100220.34;5051596;28;20031;-37
2022/04/14 03:24:29;;;;;;;12.52;6.63;;;;;;;9.79;47.54;100221.59;5051957;28;20059;-37
2022/04/14 03:26:55;;;;;;;10.88;6.00;;;;;;;9.62;48.14;100210.34;5052012;28;20021;-37
2022/04/14 03:29:20;;;;;;;11.50;6.20;;;;;;;9.70;48.45;100225.38;5051733;28;20420;-37
2022/04/14 03:31:46;;;;;;;13.15;6.18;;;;;;;9.72;48.69;100228.66;5051292;28;20028;-37
2022/04/14 03:34:11;;;;;;;9.25;5.88;;;;;;;9.74;48.51;100237.28;5050666;28;20098;-37
2022/04/14 03:36:37;;;;;;;11.23;6.20;;;;;;;9.85;48.72;100235.97;5052035;28;20021;-37
2022/04/14 03:39:03;;;;;;;57.97;29.60;;;;;;;10.01;48.29;100238.41;5051557;28;20446;-37
2022/04/14 03:41:29;;;;;;;28.20;13.95;;;;;;;10.21;48.07;100243.13;5050786;28;20036;-37
2022/04/14 03:43:54;;;;;;;19.13;7.82;;;;;;;9.97;49.06;100240.59;5050730;28;20024;-37
2022/04/14 03:46:20;;;;;;;14.57;7.50;;;;;;;10.11;48.94;100249.59;5051130;28;20032;-37
2022/04/14 03:48:46;;;;;;;13.80;7.43;;;;;;;9.91;49.41;100251.19;5051203;28;20044;-37
2022/04/14 03:51:14;;;;;;;14.40;7.68;;;;;;;9.98;49.22;100250.25;5050986;28;20013;-38
2022/04/14 03:53:41;;;;;;;14.70;6.65;;;;;;;9.85;49.57;100255.41;5050782;28;20124;-39
2022/04/14 03:56:07;;;;;;;17.50;7.25;;;;;;;9.87;49.35;100241.94;5051114;28;20052;-40
2022/04/14 03:58:32;;;;;;;12.55;7.70;;;;;;;10.03;49.28;100256.84;5051868;28;20052;-37
2022/04/14 04:00:58;;;;;;;26.10;7.90;;;;;;;10.11;49.75;100265.53;5050809;28;20204;-37
2022/04/14 04:03:23;;;;;;;15.02;8.23;;;;;;;10.23;49.49;100267.72;5050414;28;20497;-37
2022/04/14 04:05:48;;;;;;;21.70;8.35;;;;;;;10.24;49.38;100267.50;5050285;28;20095;-37
2022/04/14 04:08:14;;;;;;;17.95;8.30;;;;;;;10.35;49.79;100268.88;5049732;28;20049;-37
2022/04/14 04:10:39;;;;;;;18.20;9.70;;;;;;;10.44;50.33;100274.91;5050006;28;20094;-37
2022/04/14 04:13:06;;;;;;;19.27;7.43;;;;;;;10.47;50.84;100278.03;5050574;28;20392;-37
2022/04/14 04:15:32;;;;;;;17.50;7.03;;;;;;;10.32;52.43;100279.91;5040618;28;20051;-47
2022/04/14 04:17:57;;;;;;;21.52;7.93;;;;;;;10.61;51.11;100283.47;5030885;28;20025;-47
2022/04/14 04:20:24;;;;;;;24.23;8.15;;;;;;;11.00;47.22;100276.81;5030889;28;20021;-48
2022/04/14 04:22:49;;;;;;;19.80;8.93;;;;;;;11.32;47.44;100276.22;5035522;28;20519;-50
2022/04/14 04:25:15;;;;;;;23.15;7.35;;;;;;;11.76;47.28;100290.22;5042576;28;20033;-48
2022/04/14 04:27:40;;;;;;;20.88;7.05;;;;;;;12.01;46.49;100287.88;5050535;28;20020;-48
2022/04/14 04:30:07;;;;;;;20.35;7.15;;;;;;;12.42;45.71;100295.00;5050849;28;20017;-49
2022/04/14 04:32:33;;;;;;;20.02;7.70;;;;;;;12.49;44.85;100295.84;5050950;28;20024;-50
2022/04/14 04:35:03;;;;;;;17.38;8.13;;;;;;;12.94;43.76;100292.59;5050444;28;20046;-52
2022/04/14 04:37:29;;;;;;;23.83;10.75;;;;;;;13.22;42.23;100271.00;5050477;28;20105;-46
2022/04/14 04:39:55;;;;;;;32.28;16.92;;;;;;;13.73;42.29;100301.56;5050694;28;20116;-49
2022/04/14 04:42:20;;;;;;;70.70;32.72;;;;;;;13.92;41.60;100304.34;5053150;28;20055;-49
2022/04/14 04:44:46;;;;;;;26.08;9.43;;;;;;;14.18;40.88;100306.91;5053970;28;20020;-47
2022/04/14 04:47:11;;;;;;;35.30;19.05;;;;;;;14.61;38.13;100314.34;5054557;28;20102;-50
2022/04/14 04:49:37;;;;;;;40.53;20.30;;;;;;;14.16;38.75;100305.50;5054724;28;20025;-49
2022/04/14 04:52:02;;;;;;;23.63;11.27;;;;;;;14.70;37.84;100312.22;5054838;28;20029;-48
2022/04/14 04:54:28;;;;;;;16.30;7.78;;;;;;;14.99;37.37;100304.59;5054268;28;20025;-50
2022/04/14 04:56:53;;;;;;;13.18;7.03;;;;;;;14.79;37.76;100294.88;5053867;28;20025;-49
2022/04/14 04:59:19;;;;;;;27.08;13.95;;;;;;;15.44;36.63;100312.44;5049073;28;20413;-49
2022/04/14 05:01:44;;;;;;;19.40;11.52;;;;;;;15.97;35.87;100317.25;5042590;28;20090;-51
2022/04/14 05:04:11;;;;;;;20.55;7.90;;;;;;;16.33;35.22;100318.22;5034280;28;20029;-51
2022/04/14 05:06:40;;;;;;;17.10;7.15;;;;;;;15.93;35.96;100317.91;5034292;28;20063;-51
2022/04/14 05:09:05;;;;;;;17.55;7.03;;;;;;;16.27;35.32;100305.72;5035927;28;20092;-50
2022/04/14 05:11:31;;;;;;;15.13;6.80;;;;;;;16.82;33.63;100310.13;5054320;28;20067;-49
2022/04/14 05:13:57;;;;;;;15.05;6.65;;;;;;;17.42;32.89;100311.81;5054066;28;20021;-47
2022/04/14 05:16:22;;;;;;;12.98;5.60;;;;;;;17.82;32.31;100310.22;5053728;28;20031;-50
2022/04/14 05:18:48;;;;;;;12.30;6.00;;;;;;;17.63;31.09;100312.25;5053290;28;20024;-52
2022/04/14 05:21:14;;;;;;;13.45;6.20;;;;;;;18.30;30.70;100317.16;5052506;28;20025;-50
2022/04/14 05:23:39;;;;;;;11.05;5.90;;;;;;;18.48;30.08;100314.22;5052702;28;20370;-49
2022/04/14 05:26:05;;;;;;;16.73;6.43;;;;;;;18.97;29.17;100315.66;5052478;28;20029;-48
2022/04/14 05:28:30;;;;;;;26.98;10.38;;;;;;;18.57;28.71;100306.59;5052377;28;20025;-50
2022/04/14 05:30:56;;;;;;;66.85;37.70;;;;;;;18.12;28.97;100307.38;5052501;28;20021;-48
2022/04/14 05:33:21;;;;;;;20.00;9.77;;;;;;;18.66;28.03;100313.22;5052415;28;20120;-52
2022/04/14 05:35:47;;;;;;;41.13;24.70;;;;;;;18.59;28.16;100311.75;5053183;28;20032;-47
2022/04/14 05:38:13;;;;;;;33.15;19.98;;;;;;;19.08;27.43;100317.44;5053934;28;20032;-48
2022/04/14 05:40:41;;;;;;;14.07;8.98;;;;;;;19.62;27.41;100325.78;5051784;28;20582;-51
2022/04/14 05:43:28;;;;;;;12.50;7.35;;;;;;;18.97;27.44;100312.94;5053244;28;20437;-50
2022/04/14 05:45:59;;;;;;;13.90;7.78;;;;;;;19.32;27.71;100316.22;5053623;28;20075;-50
2022/04/14 05:48:24;;;;;;;12.60;6.10;;;;;;;19.76;26.63;100317.34;5052979;28;20024;-49
2022/04/14 05:50:50;;;;;;;11.55;6.07;;;;;;;20.83;25.80;100309.63;5052448;28;20009;-49
2022/04/14 05:53:17;;;;;;;12.48;6.13;;;;;;;21.28;25.47;100316.44;5052096;28;20086;-48
2022/04/14 05:55:44;;;;;;;10.98;5.93;;;;;;;21.65;24.30;100296.66;5052931;28;20112;-48
2022/04/14 05:58:10;;;;;;;12.18;5.85;;;;;;;21.85;26.83;100318.38;5051873;28;20052;-50
2022/04/14 06:00:36;;;;;;;11.98;5.57;;;;;;;21.98;27.46;100321.69;5052762;28;20485;-50
2022/04/14 06:03:02;;;;;;;9.30;5.03;;;;;;;21.97;27.48;100326.31;5052287;28;20020;-50
2022/04/14 06:05:30;;;;;;;9.85;5.22;;;;;;;22.33;25.76;100320.22;5051498;28;20025;-48
2022/04/14 06:07:56;;;;;;;8.65;5.00;;;;;;;22.31;26.42;100320.47;5051727;28;20071;-51
2022/04/14 06:10:23;;;;;;;7.88;4.35;;;;;;;23.33;25.77;100324.34;5051967;28;20029;-50
2022/04/14 06:12:49;;;;;;;9.23;4.43;;;;;;;24.13;23.81;100335.25;5051716;28;20124;-49
2022/04/14 06:15:14;;;;;;;10.98;4.30;;;;;;;24.20;23.19;100326.78;5052374;28;20452;-49
2022/04/14 06:17:42;;;;;;;10.93;4.65;;;;;;;24.19;23.59;100325.16;5052133;28;20109;-49
2022/04/14 06:20:08;;;;;;;10.57;5.45;;;;;;;23.33;23.85;100316.22;5051526;28;20725;-50
2022/04/14 06:22:40;;;;;;;7.95;5.57;;;;;;;23.16;24.42;100327.34;5051771;28;20103;-51
2022/04/14 06:25:12;;;;;;;11.15;5.40;;;;;;;24.08;23.24;100335.25;5052001;28;20476;-50
2022/04/14 06:27:39;;;;;;;11.50;6.80;;;;;;;24.62;23.78;100344.53;5051895;28;20570;-48
2022/04/14 06:30:06;;;;;;;11.20;7.13;;;;;;;25.25;22.04;100334.78;5051757;28;20017;-47
2022/04/14 06:32:31;;;;;;;10.02;5.75;;;;;;;25.57;21.52;100336.91;5051822;28;20054;-49
2022/04/14 06:34:57;;;;;;;7.95;4.90;;;;;;;25.88;21.58;100347.44;5052112;28;20020;-49
2022/04/14 06:37:22;;;;;;;9.15;5.00;;;;;;;26.25;20.86;100343.19;5051727;28;20025;-51
2022/04/14 06:39:47;;;;;;;9.65;5.10;;;;;;;26.39;20.63;100338.63;5051697;28;20025;-49
2022/04/14 06:42:13;;;;;;;8.10;4.65;;;;;;;26.21;20.62;100345.69;5051838;28;20049;-48
2022/04/14 06:44:38;;;;;;;13.02;5.75;;;;;;;23.64;22.93;100351.44;5050923;28;20028;-47
2022/04/14 06:47:04;;;;;;;8.00;5.20;;;;;;;24.91;21.58;100349.19;5051416;28;20097;-50
2022/04/14 06:49:30;;;;;;;9.70;5.05;;;;;;;25.56;21.29;100346.97;5051430;28;20017;-52
2022/04/14 06:51:55;;;;;;;10.90;5.50;;;;;;;25.49;21.83;100342.97;5051346;28;20021;-51
2022/04/14 06:54:20;;;;;;;11.50;5.90;;;;;;;26.18;21.05;100348.19;5050916;28;20028;-50
2022/04/14 06:56:46;;;;;;;9.18;5.88;;;;;;;25.70;21.08;100352.56;5050914;28;20039;-51
2022/04/14 06:59:11;;;;;;;16.60;5.43;;;;;;;26.40;20.62;100353.88;5049872;28;20029;-50
2022/04/14 07:01:37;;;;;;;8.65;5.28;;;;;;;26.97;20.38;100353.84;5047950;28;20025;-51
2022/04/14 07:04:02;;;;;;;7.65;4.80;;;;;;;27.23;19.87;100361.63;5049486;28;20036;-47
2022/04/14 07:06:27;;;;;;;7.82;4.70;;;;;;;27.68;19.93;100364.63;5050273;28;20153;-49
2022/04/14 07:08:53;;;;;;;7.85;4.53;;;;;;;27.79;19.80;100360.59;5050493;28;20057;-49
2022/04/14 07:11:18;;;;;;;7.07;4.22;;;;;;;27.67;19.39;100361.09;5049726;28;20433;-49
2022/04/14 07:13:44;;;;;;;6.30;3.80;;;;;;;27.41;19.26;100365.44;5050005;28;20036;-48
2022/04/14 07:16:09;;;;;;;9.20;3.95;;;;;;;26.98;19.21;100354.66;5049761;28;20017;-48
2022/04/14 07:18:35;;;;;;;8.20;4.07;;;;;;;26.46;20.42;100365.53;5050030;28;20021;-49
2022/04/14 07:21:00;;;;;;;7.07;4.13;;;;;;;27.10;19.70;100358.56;5049658;28;20128;-50
2022/04/14 07:23:27;;;;;;;9.25;4.00;;;;;;;27.73;19.42;100361.00;5050710;28;20065;-52
2022/04/14 07:25:53;;;;;;;9.65;5.40;;;;;;;27.36;19.43;100360.06;5050765;28;20163;-48
2022/04/14 07:28:18;;;;;;;8.68;6.90;;;;;;;27.50;19.84;100366.38;5050521;28;20037;-50
2022/04/14 07:30:44;;;;;;;9.10;4.50;;;;;;;27.18;19.81;100354.31;5050657;28;20025;-50
2022/04/14 07:33:09;;;;;;;6.70;4.18;;;;;;;27.53;19.47;100348.53;5050455;28;20025;-49
2022/04/14 07:35:35;;;;;;;11.27;4.40;;;;;;;26.95;20.26;100358.00;5050439;28;20086;-49
2022/04/14 07:38:00;;;;;;;12.52;8.70;;;;;;;27.39;20.45;100345.78;5050316;28;20158;-50
2022/04/14 07:40:26;;;;;;;9.73;4.93;;;;;;;27.57;19.31;100355.84;5050433;28;20037;-50
2022/04/14 07:42:55;;;;;;;12.15;4.70;;;;;;;26.76;20.48;100353.38;5050354;28;20029;-49
2022/04/14 07:45:21;;;;;;;;;;;;;;;26.29;21.59;100346.94;5050959;28;20043;-48
2022/04/14 07:47:47;;;;;;;8.30;4.80;;;;;;;26.71;20.93;100348.00;5049913;28;19928;-51
2022/04/14 07:50:15;;;;;;;6.68;4.78;;;;;;;27.62;20.15;100355.72;5050286;28;20079;-53
2022/04/14 07:52:55;;;;;;;9.57;4.43;;;;;;;28.23;18.75;100352.88;5050472;28;20021;-51
2022/04/14 07:55:25;;;;;;;7.35;4.40;;;;;;;27.73;19.25;100347.34;5050018;28;20108;-52
2022/04/14 07:57:52;;;;;;;8.00;4.30;;;;;;;27.84;19.59;100349.56;5049717;28;20461;-51
2022/04/14 08:00:19;;;;;;;10.40;4.93;;;;;;;27.19;20.07;100350.50;5049702;28;20033;-52
2022/04/14 08:02:50;;;;;;;8.32;4.72;;;;;;;27.47;19.79;100345.09;5049990;28;20078;-51
2022/04/14 08:05:16;;;;;;;7.47;4.10;;;;;;;27.60;19.57;100344.28;5050258;28;20040;-50
2022/04/14 08:07:41;;;;;;;6.80;4.30;;;;;;;28.46;19.56;100349.09;5050059;28;20040;-48
2022/04/14 08:10:07;;;;;;;6.05;4.40;;;;;;;28.31;18.23;100343.13;5048971;28;20017;-48
2022/04/14 08:12:32;;;;;;;9.23;4.55;;;;;;;26.32;20.30;100341.72;5049566;28;20021;-48
2022/04/14 08:14:58;;;;;;;7.20;4.10;;;;;;;26.68;20.37;100349.41;5049547;28;20035;-48
2022/04/14 08:17:23;;;;;;;7.05;4.35;;;;;;;27.55;19.69;100343.56;5048742;28;20067;-49
2022/04/14 08:19:48;;;;;;;8.20;3.95;;;;;;;28.13;19.10;100342.19;5049178;28;20538;-48
2022/04/14 08:22:14;;;;;;;7.85;4.30;;;;;;;28.55;18.33;100349.19;5049246;28;20069;-50
2022/04/14 08:24:39;;;;;;;11.18;4.25;;;;;;;28.14;18.70;100346.50;5049761;28;20757;-48
2022/04/14 08:27:05;;;;;;;5.90;4.10;;;;;;;28.46;18.13;100345.53;5049378;28;20049;-50
2022/04/14 08:29:30;;;;;;;7.68;5.22;;;;;;;27.26;18.68;100337.28;5048999;28;20021;-51
2022/04/14 08:31:57;;;;;;;6.45;4.28;;;;;;;26.79;19.62;100332.84;5049037;28;20032;-50
2022/04/14 08:34:23;;;;;;;9.23;4.45;;;;;;;28.06;18.16;100326.16;5049173;28;20052;-49
2022/04/14 08:36:52;;;;;;;7.72;4.57;;;;;;;27.80;17.65;100334.09;5049007;28;20505;-49
2022/04/14 08:39:18;;;;;;;10.25;4.28;;;;;;;27.76;18.42;100319.38;5048856;28;20025;-51
2022/04/14 08:41:50;;;;;;;7.03;4.22;;;;;;;27.10;18.44;100328.50;5049265;28;20035;-52
2022/04/14 08:44:21;;;;;;;9.07;4.10;;;;;;;26.74;19.18;100320.13;5049098;28;20029;-47
2022/04/14 08:46:48;;;;;;;7.95;4.50;;;;;;;27.64;18.72;100317.16;5049617;28;20086;-51
2022/04/14 08:49:16;;;;;;;6.45;4.15;;;;;;;28.42;17.99;100317.97;5049382;28;20021;-49
2022/04/14 08:51:42;;;;;;;8.33;4.50;;;;;;;29.04;17.48;100309.09;5048737;28;20027;-52
2022/04/14 08:54:09;;;;;;;7.45;4.63;;;;;;;28.74;17.14;100313.41;5049019;28;20029;-50
2022/04/14 08:56:35;;;;;;;6.97;3.75;;;;;;;28.21;15.79;100306.69;5048710;28;20504;-51
2022/04/14 08:59:01;;;;;;;5.93;4.10;;;;;;;27.54;15.90;100295.50;5048567;28;20029;-51
2022/04/14 09:01:27;;;;;;;8.65;3.97;;;;;;;27.24;16.43;100293.00;5048508;28;20409;-50
2022/04/14 09:03:57;;;;;;;6.65;4.00;;;;;;;26.50;16.79;100296.44;5049275;28;20112;-51
2022/04/14 09:06:23;;;;;;;5.57;3.45;;;;;;;23.72;17.97;100293.81;5048983;28;20056;-52
2022/04/14 09:08:49;;;;;;;6.53;3.58;;;;;;;24.48;17.77;100289.88;5049108;28;20673;-51
2022/04/14 09:11:16;;;;;;;6.32;3.90;;;;;;;25.48;18.70;100287.69;5049237;28;20025;-53
2022/04/14 09:13:44;;;;;;;6.55;3.75;;;;;;;25.79;18.00;100291.97;5049312;28;20039;-54
2022/04/14 09:16:10;;;;;;;5.93;3.60;;;;;;;25.65;17.37;100291.88;5049731;28;20118;-53
2022/04/14 09:18:36;;;;;;;5.47;3.70;;;;;;;26.53;19.17;100289.56;5049503;28;20057;-55
2022/04/14 09:21:03;;;;;;;8.05;3.83;;;;;;;26.55;17.80;100283.81;5049099;28;20037;-49
2022/04/14 09:23:29;;;;;;;6.90;4.00;;;;;;;26.97;17.84;100282.88;5048909;28;20051;-49
2022/04/14 09:26:04;;;;;;;7.18;3.97;;;;;;;26.19;17.64;100284.38;5049068;28;20056;-48
2022/04/14 09:28:30;;;;;;;5.00;4.03;;;;;;;25.24;18.78;100275.97;5051524;28;20120;-50
2022/04/14 09:31:04;;;;;;;8.32;3.88;;;;;;;24.88;18.64;100274.34;5052322;28;20028;-48
2022/04/14 09:33:31;;;;;;;5.38;3.70;;;;;;;25.60;18.13;100281.00;5052148;28;20029;-48
2022/04/14 09:36:13;;;;;;;8.15;3.50;;;;;;;25.50;19.35;100268.31;5052303;28;20095;-47
2022/04/14 09:38:57;;;;;;;8.43;3.72;;;;;;;25.38;17.72;100271.47;5052670;28;20097;-48
2022/04/14 09:41:26;;;;;;;5.90;3.47;;;;;;;24.77;18.25;100270.94;5052271;28;20033;-48
2022/04/14 09:43:55;;;;;;;6.80;3.90;;;;;;;24.45;18.74;100271.44;5052502;28;20482;-50
2022/04/14 09:46:20;;;;;;;10.52;3.70;;;;;;;23.95;19.97;100268.75;5052273;28;20021;-49
2022/04/14 09:49:05;;;;;;;8.35;3.95;;;;;;;23.57;20.01;100243.06;5052710;28;20508;-48
2022/04/14 09:51:32;;;;;;;9.90;4.00;;;;;;;23.89;19.93;100269.03;5052518;28;20661;-49
2022/04/14 09:54:04;;;;;;;8.65;3.70;;;;;;;23.68;20.71;100254.72;5052521;28;20060;-48
2022/04/14 09:56:41;;;;;;;8.52;4.40;;;;;;;23.96;19.72;100240.47;5051558;28;20483;-47
2022/04/14 09:59:08;;;;;;;5.68;4.00;;;;;;;25.00;19.47;100245.94;5052516;28;20048;-49
2022/04/14 10:01:34;;;;;;;6.78;4.00;;;;;;;25.36;19.13;100236.34;5051314;28;20477;-48
2022/04/14 10:04:00;;;;;;;6.97;4.03;;;;;;;25.10;19.20;100238.50;5052236;28;20691;-49
2022/04/14 10:06:26;;;;;;;9.20;4.10;;;;;;;25.18;18.65;100235.13;5051676;28;20112;-48
2022/04/14 10:08:52;;;;;;;8.57;3.92;;;;;;;24.92;19.26;100236.50;5052564;28;20183;-51
2022/04/14 10:11:25;;;;;;;7.20;4.10;;;;;;;24.93;19.12;100235.41;5053147;28;20035;-50
2022/04/14 10:13:51;;;;;;;8.60;3.80;;;;;;;24.53;18.83;100246.38;5052942;28;20036;-48
2022/04/14 10:16:22;;;;;;;5.47;3.47;;;;;;;24.50;18.36;100244.19;5052563;28;20033;-49
2022/04/14 10:18:49;;;;;;;6.18;3.80;;;;;;;23.73;18.97;100250.06;5052488;28;20461;-52
2022/04/14 10:21:15;;;;;;;5.78;3.60;;;;;;;23.22;18.94;100239.38;5051875;28;20025;-49
2022/04/14 10:23:41;;;;;;;4.45;3.38;;;;;;;22.74;19.62;100237.00;5050873;28;20024;-50
2022/04/14 10:26:08;;;;;;;6.40;3.60;;;;;;;23.11;18.74;100229.63;5050666;28;20445;-47
2022/04/14 10:28:36;;;;;;;4.78;3.58;;;;;;;23.88;19.51;100229.38;5051710;28;20149;-51
2022/04/14 10:31:02;;;;;;;7.30;3.55;;;;;;;24.73;19.24;100229.06;5052170;28;20017;-47
2022/04/14 10:33:31;;;;;;;4.70;3.47;;;;;;;25.86;18.06;100222.34;5051747;28;20048;-50
2022/04/14 10:35:56;;;;;;;5.97;3.67;;;;;;;25.98;17.21;100226.59;5050659;28;20426;-49
2022/04/14 10:38:33;;;;;;;6.25;3.40;;;;;;;26.34;16.22;100224.13;5050279;28;20116;-48
2022/04/14 10:41:04;;;;;;;68.38;50.90;;;;;;;26.67;16.98;100224.97;5050286;28;20017;-49
2022/04/14 10:43:33;;;;;;;10.65;5.97;;;;;;;26.90;16.27;100215.00;5051285;28;20051;-51
2022/04/14 10:46:00;;;;;;;5.55;3.45;;;;;;;27.46;16.10;100225.97;5050390;28;20126;-52
2022/04/14 10:48:34;;;;;;;4.20;3.20;;;;;;;28.19;16.04;100218.63;5049838;28;20075;-51
2022/04/14 10:51:23;;;;;;;6.85;3.20;;;;;;;28.10;14.84;100211.47;5049898;28;20118;-51
2022/04/14 10:54:06;;;;;;;7.60;3.53;;;;;;;27.95;14.81;100216.19;5050857;28;20032;-48
2022/04/14 10:56:34;;;;;;;5.68;3.40;;;;;;;27.64;15.02;100213.28;5051130;28;20025;-48
2022/04/14 10:59:18;;;;;;;6.47;3.60;;;;;;;27.45;15.27;100206.03;5050567;28;20036;-49
2022/04/14 11:01:52;;;;;;;5.95;4.00;;;;;;;26.94;15.50;100206.19;5050971;28;20060;-47
2022/04/14 11:04:42;;;;;;;4.35;3.28;;;;;;;26.72;15.09;100194.03;5051092;28;20453;-47
2022/04/14 11:07:15;;;;;;;6.05;3.50;;;;;;;26.46;15.46;100193.63;5051202;28;20032;-50
2022/04/14 11:09:44;;;;;;;4.70;3.60;;;;;;;27.01;15.38;100199.22;5050904;28;20057;-50
2022/04/14 11:12:19;;;;;;;6.60;3.40;;;;;;;26.38;15.42;100200.59;5050840;28;20029;-48
2022/04/14 11:15:03;;;;;;;4.32;3.25;;;;;;;25.40;16.25;100195.72;5050877;28;20498;-48
2022/04/14 11:17:32;;;;;;;5.22;3.00;;;;;;;25.93;15.47;100189.28;5050941;28;20029;-49
2022/04/14 11:20:20;;;;;;;7.10;3.20;;;;;;;26.69;14.91;100183.72;5051172;28;20056;-49
2022/04/14 11:23:28;;;;;;;4.13;2.88;;;;;;;27.48;15.00;100183.56;5050675;28;20135;-49